Time;durP1;ratioP1;P1;durP2;ratioP2;P2;SDS_P1;SDS_P2;PMS_P1;PMS_P2;Temp;Humidity;BMP_temperature;BMP_pressure;BME280_temperature;BME280_humidity;BME280_pressure;Samples;Min_cycle;Max_cycle;Signal;HPM_P1;HPM_P2
2021/10/20 00:00:18;;;;;;;;;;;;;;;14.70;63.53;100648.34;4922911;28;122555;-57
2021/10/20 00:02:47;;;;;;;;;;;;;;;14.67;63.58;100655.13;4923156;28;100441;-58
2021/10/20 00:05:14;;;;;;;;;;;;;;;14.65;64.01;100648.38;4923381;28;98981;-58
2021/10/20 00:07:40;;;;;;;;;;;;;;;14.64;63.78;100641.34;4922987;28;98803;-58
2021/10/20 00:10:06;;;;;;;;;;;;;;;14.63;64.00;100643.25;4922034;28;123261;-58
2021/10/20 00:12:32;;;;;;;;;;;;;;;14.61;63.73;100641.91;4923117;28;98864;-58
2021/10/20 00:14:58;;;;;;;;;;;;;;;14.59;63.84;100639.50;4923544;28;97860;-57
2021/10/20 00:17:24;;;;;;;;;;;;;;;14.58;63.68;100635.19;4923325;28;97994;-57
2021/10/20 00:19:55;;;;;;;;;;;;;;;14.56;64.30;100641.97;4922983;28;98613;-56
2021/10/20 00:22:21;;;;;;;;;;;;;;;14.54;63.85;100642.28;4923080;28;98756;-58
2021/10/20 00:24:47;;;;;;;;;;;;;;;14.54;64.19;100634.16;4921873;28;128063;-57
2021/10/20 00:27:13;;;;;;;;;;;;;;;14.53;64.09;100634.41;4921803;28;117093;-60
2021/10/20 00:29:39;;;;;;;;;;;;;;;14.52;63.93;100638.22;4921591;28;127642;-58
2021/10/20 00:32:05;;;;;;;;;;;;;;;14.51;63.93;100637.44;4922961;28;127785;-57
2021/10/20 00:34:31;;;;;;;;;;;;;;;14.50;64.38;100635.78;4921825;28;117459;-57
2021/10/20 00:36:57;;;;;;;;;;;;;;;14.49;64.13;100631.47;4921944;28;117745;-58
2021/10/20 00:39:23;;;;;;;;;;;;;;;14.47;64.33;100629.03;4919901;28;129117;-58
2021/10/20 00:41:52;;;;;;;;;;;;;;;14.47;64.38;100626.31;4919701;28;129404;-58
2021/10/20 00:44:18;;;;;;;;;;;;;;;14.46;64.52;100622.00;4903756;28;97905;-57
2021/10/20 00:46:44;;;;;;;;;;;;;;;14.45;64.50;100623.06;4921861;28;98067;-58
2021/10/20 00:49:10;;;;;;;;;;;;;;;14.45;64.46;100619.56;4922824;28;99045;-58
2021/10/20 00:51:36;;;;;;;;;;;;;;;14.45;64.41;100617.66;4922140;28;128590;-58
2021/10/20 00:54:02;;;;;;;;;;;;;;;14.44;64.52;100618.75;4921457;28;128609;-58
2021/10/20 00:56:28;;;;;;;;;;;;;;;14.44;64.73;100615.25;4923526;28;97863;-58
2021/10/20 00:58:54;;;;;;;;;;;;;;;14.43;64.53;100611.72;4921233;28;128925;-58
2021/10/20 01:01:20;;;;;;;;;;;;;;;14.43;64.78;100613.63;4937273;28;98268;-58
2021/10/20 01:03:46;;;;;;;;;;;;;;;14.43;64.70;100621.78;4922282;28;103547;-57
2021/10/20 01:06:12;;;;;;;;;;;;;;;14.41;64.78;100613.09;4922315;28;116595;-57
2021/10/20 01:08:39;;;;;;;;;;;;;;;14.39;64.64;100602.56;4921233;28;99511;-58
2021/10/20 01:11:05;;;;;;;;;;;;;;;14.40;64.82;100608.78;4921017;28;114803;-57
2021/10/20 01:13:30;;;;;;;;;;;;;;;14.39;64.90;100604.47;4936233;28;121474;-57
2021/10/20 01:15:57;;;;;;;;;;;;;;;14.38;64.78;100606.38;4936031;28;116226;-57
2021/10/20 01:18:22;;;;;;;;;;;;;;;14.37;64.86;100604.72;4902200;28;128866;-58
2021/10/20 01:20:51;;;;;;;;;;;;;;;14.35;64.82;100596.09;4920779;28;121169;-58
2021/10/20 01:23:20;;;;;;;;;;;;;;;14.35;64.80;100592.56;4903970;28;98543;-57
2021/10/20 01:25:46;;;;;;;;;;;;;;;14.34;64.63;100591.75;4922934;28;110618;-58
2021/10/20 01:28:12;;;;;;;;;;;;;;;14.32;64.68;100583.09;4921433;28;98911;-58
2021/10/20 01:30:38;;;;;;;;;;;;;;;14.30;64.88;100577.16;4922777;28;98617;-57
2021/10/20 01:33:04;;;;;;;;;;;;;;;14.30;65.00;100579.06;4921897;28;115123;-58
2021/10/20 01:35:30;;;;;;;;;;;;;;;14.28;64.71;100565.81;4921493;28;117699;-58
2021/10/20 01:37:58;;;;;;;;;;;;;;;14.27;64.91;100561.47;4920580;28;128278;-57
2021/10/20 01:40:24;;;;;;;;;;;;;;;14.26;65.13;100551.72;4922180;28;98899;-58
2021/10/20 01:42:50;;;;;;;;;;;;;;;14.24;65.00;100560.16;4920887;28;128203;-58
2021/10/20 01:45:16;;;;;;;;;;;;;;;14.24;65.14;100559.34;4921382;28;117741;-58
2021/10/20 01:47:42;;;;;;;;;;;;;;;14.23;65.42;100544.19;4920945;28;125474;-57
2021/10/20 01:50:09;;;;;;;;;;;;;;;14.22;65.25;100545.25;4920945;28;109165;-57
2021/10/20 01:52:35;;;;;;;;;;;;;;;14.21;65.11;100535.53;4920947;28;123466;-57
2021/10/20 01:55:01;;;;;;;;;;;;;;;14.20;64.92;100534.72;4921809;28;98006;-58
2021/10/20 01:57:27;;;;;;;;;;;;;;;14.20;65.10;100542.03;4922148;28;98520;-58
2021/10/20 01:59:53;;;;;;;;;;;;;;;14.19;65.38;100535.03;4920437;28;128076;-57
2021/10/20 02:02:19;;;;;;;;;;;;;;;14.18;65.35;100539.59;4920239;28;124467;-58
2021/10/20 02:04:46;;;;;;;;;;;;;;;14.17;64.99;100531.78;4922154;28;98165;-59
2021/10/20 02:07:12;;;;;;;;;;;;;;;14.17;65.36;100527.16;4921534;28;101189;-58
2021/10/20 02:09:38;;;;;;;;;;;;;;;14.16;65.07;100530.97;4921345;28;127175;-58
2021/10/20 02:12:04;;;;;;;;;;;;;;;14.16;65.16;100527.47;4920164;28;128351;-57
2021/10/20 02:14:30;;;;;;;;;;;;;;;14.14;65.55;100516.88;4921668;28;98024;-57
2021/10/20 02:16:56;;;;;;;;;;;;;;;14.15;65.22;100518.53;4920849;28;127442;-57
2021/10/20 02:19:22;;;;;;;;;;;;;;;14.15;65.45;100515.00;4920583;28;126135;-58
2021/10/20 02:21:48;;;;;;;;;;;;;;;14.14;65.54;100519.59;4921703;28;111606;-57
2021/10/20 02:24:14;;;;;;;;;;;;;;;14.15;65.54;100512.31;4921409;28;97940;-58
2021/10/20 02:26:40;;;;;;;;;;;;;;;14.13;65.64;100509.06;4921064;28;125509;-58
2021/10/20 02:29:06;;;;;;;;;;;;;;;14.12;65.64;100497.41;4919554;28;127421;-58
2021/10/20 02:31:32;;;;;;;;;;;;;;;14.11;65.26;100501.22;4920541;28;127353;-58
2021/10/20 02:33:58;;;;;;;;;;;;;;;14.10;65.77;100502.31;4919889;28;116330;-58
2021/10/20 02:36:24;;;;;;;;;;;;;;;14.10;65.38;100496.06;4920729;28;128221;-58
2021/10/20 02:38:50;;;;;;;;;;;;;;;14.09;65.42;100500.69;4935406;28;127686;-57
2021/10/20 02:41:16;;;;;;;;;;;;;;;14.07;65.58;100500.19;4920740;28;126854;-57
2021/10/20 02:43:41;;;;;;;;;;;;;;;14.05;65.79;100499.66;4919210;28;97927;-57
2021/10/20 02:46:07;;;;;;;;;;;;;;;14.04;65.50;100502.66;4920098;28;127453;-58
2021/10/20 02:48:33;;;;;;;;;;;;;;;14.04;65.54;100495.34;4921377;28;128168;-58
2021/10/20 02:50:59;;;;;;;;;;;;;;;14.03;65.70;100498.31;4923632;28;116907;-58
2021/10/20 02:53:25;;;;;;;;;;;;;;;14.00;65.70;100489.69;4924012;28;117580;-57
2021/10/20 02:55:51;;;;;;;;;;;;;;;13.99;65.50;100487.28;4924233;28;99465;-57
2021/10/20 02:58:17;;;;;;;;;;;;;;;13.98;65.64;100488.34;4923853;28;118616;-57
2021/10/20 03:00:43;;;;;;;;;;;;;;;13.96;65.55;100485.16;4923063;28;126481;-58
2021/10/20 03:03:09;;;;;;;;;;;;;;;13.95;65.89;100472.66;4924114;28;117394;-58
2021/10/20 03:05:35;;;;;;;;;;;;;;;13.92;66.05;100476.78;4923810;28;129261;-57
2021/10/20 03:08:01;;;;;;;;;;;;;;;13.92;66.09;100473.28;4923844;28;99136;-57
2021/10/20 03:10:27;;;;;;;;;;;;;;;13.89;66.08;100463.81;4923812;28;98869;-57
2021/10/20 03:12:53;;;;;;;;;;;;;;;13.88;66.00;100470.34;4923080;28;115488;-57
2021/10/20 03:15:18;;;;;;;;;;;;;;;13.87;66.09;100462.47;4923031;28;120423;-58
2021/10/20 03:17:44;;;;;;;;;;;;;;;13.85;65.76;100465.47;4922255;28;127105;-58
2021/10/20 03:20:10;;;;;;;;;;;;;;;13.83;66.21;100462.25;4923357;28;126722;-57
2021/10/20 03:22:40;;;;;;;;;;;;;;;13.80;66.10;100462.84;4923999;28;98001;-58
2021/10/20 03:25:07;;;;;;;;;;;;;;;13.79;66.21;100457.69;4905313;28;123891;-58
2021/10/20 03:27:38;;;;;;;;;;;;;;;13.78;66.30;100456.88;4923840;28;98614;-58
2021/10/20 03:30:05;;;;;;;;;;;;;;;13.76;66.05;100448.25;4922853;28;121766;-57
2021/10/20 03:32:31;;;;;;;;;;;;;;;13.73;66.08;100448.84;4922781;28;105930;-60
2021/10/20 03:34:56;;;;;;;;;;;;;;;13.71;66.24;100443.69;4922452;28;127426;-57
2021/10/20 03:37:22;;;;;;;;;;;;;;;13.70;66.07;100441.28;4923019;28;128228;-57
2021/10/20 03:39:48;;;;;;;;;;;;;;;13.67;66.02;100431.81;4922553;28;126532;-58
2021/10/20 03:42:14;;;;;;;;;;;;;;;13.66;66.55;100434.81;4923046;28;117863;-57
2021/10/20 03:44:40;;;;;;;;;;;;;;;13.64;66.23;100434.31;4922781;28;129000;-58
2021/10/20 03:47:06;;;;;;;;;;;;;;;13.61;66.22;100435.69;4922029;28;128409;-57
2021/10/20 03:49:32;;;;;;;;;;;;;;;13.60;66.29;100436.78;4922632;28;127533;-57
2021/10/20 03:51:58;;;;;;;;;;;;;;;13.59;66.47;100432.44;4923826;28;97921;-57
2021/10/20 03:54:24;;;;;;;;;;;;;;;13.56;66.59;100419.50;4922317;28;128871;-57
2021/10/20 03:56:50;;;;;;;;;;;;;;;13.56;66.15;100419.50;4922569;28;127059;-57
2021/10/20 03:59:15;;;;;;;;;;;;;;;13.54;66.49;100421.69;4922268;28;127272;-57
2021/10/20 04:01:41;;;;;;;;;;;;;;;13.53;66.57;100414.66;4922312;28;117528;-57
2021/10/20 04:04:07;;;;;;;;;;;;;;;13.51;66.40;100406.00;4922465;28;126912;-58
2021/10/20 04:06:34;;;;;;;;;;;;;;;13.50;66.77;100415.22;4922785;28;127332;-58
2021/10/20 04:09:00;;;;;;;;;;;;;;;13.48;66.38;100412.81;4923703;28;97756;-58
2021/10/20 04:11:26;;;;;;;;;;;;;;;13.47;66.58;100413.91;4923074;28;117043;-58
2021/10/20 04:13:52;;;;;;;;;;;;;;;13.46;66.81;100415.00;4936777;28;126286;-58
2021/10/20 04:16:18;;;;;;;;;;;;;;;13.45;66.46;100413.38;4922984;28;98396;-58
2021/10/20 04:18:44;;;;;;;;;;;;;;;13.45;66.75;100412.59;4937385;28;125742;-58
2021/10/20 04:21:10;;;;;;;;;;;;;;;13.43;66.55;100409.34;4922700;28;116925;-58
2021/10/20 04:23:36;;;;;;;;;;;;;;;13.41;66.85;100409.66;4922044;28;127065;-57
2021/10/20 04:26:02;;;;;;;;;;;;;;;13.41;66.62;100409.66;4921770;28;128221;-58
2021/10/20 04:28:27;;;;;;;;;;;;;;;13.40;66.82;100412.63;4904056;28;129023;-57
2021/10/20 04:30:53;;;;;;;;;;;;;;;13.39;66.58;100409.09;4937283;28;108283;-58
2021/10/20 04:33:19;;;;;;;;;;;;;;;13.39;66.78;100400.19;4922120;28;128045;-57
2021/10/20 04:35:45;;;;;;;;;;;;;;;13.37;66.86;100388.84;4923228;28;98733;-57
2021/10/20 04:38:11;;;;;;;;;;;;;;;13.36;66.68;100393.47;4921642;28;127454;-57
2021/10/20 04:40:37;;;;;;;;;;;;;;;13.35;66.95;100386.41;4922350;28;117907;-58
2021/10/20 04:43:03;;;;;;;;;;;;;;;13.33;67.07;100385.09;4921823;28;128112;-57
2021/10/20 04:45:29;;;;;;;;;;;;;;;13.32;66.67;100386.97;4921013;28;113360;-57
2021/10/20 04:47:55;;;;;;;;;;;;;;;13.31;66.97;100390.00;4917574;28;127100;-58
2021/10/20 04:50:21;;;;;;;;;;;;;;;13.30;66.74;100381.06;4919317;28;118360;-57
2021/10/20 04:52:47;;;;;;;;;;;;;;;13.29;66.95;100378.66;4919091;28;98867;-57
2021/10/20 04:55:12;;;;;;;;;;;;;;;13.26;66.94;100380.84;4918279;28;127698;-58
2021/10/20 04:57:38;;;;;;;;;;;;;;;13.26;67.13;100377.31;4917819;28;127885;-58
2021/10/20 05:00:05;;;;;;;;;;;;;;;13.25;66.99;100373.00;4918628;28;117045;-58
2021/10/20 05:02:35;;;;;;;;;;;;;;;13.24;67.06;100376.78;4918797;28;116047;-58
2021/10/20 05:05:05;;;;;;;;;;;;;;;13.23;66.93;100370.56;4918941;28;98780;-57
2021/10/20 05:07:31;;;;;;;;;;;;;;;13.21;66.92;100367.31;4918930;28;99226;-58
2021/10/20 05:09:57;;;;;;;;;;;;;;;13.21;67.03;100363.81;4921671;28;97855;-58
2021/10/20 05:12:23;;;;;;;;;;;;;;;13.20;67.01;100357.59;4920262;28;120077;-58
2021/10/20 05:14:48;;;;;;;;;;;;;;;13.19;67.05;100361.38;4922283;28;98329;-57
2021/10/20 05:17:14;;;;;;;;;;;;;;;13.19;67.33;100366.00;4921676;28;126448;-58
2021/10/20 05:19:40;;;;;;;;;;;;;;;13.18;66.98;100359.78;4922025;28;117200;-57
2021/10/20 05:22:07;;;;;;;;;;;;;;;13.17;67.00;100350.06;4920994;28;128077;-58
2021/10/20 05:24:34;;;;;;;;;;;;;;;13.16;67.16;100353.81;4922038;28;97869;-57
2021/10/20 05:27:00;;;;;;;;;;;;;;;13.16;67.08;100342.19;4922144;28;103779;-57
2021/10/20 05:29:32;;;;;;;;;;;;;;;13.16;67.15;100336.78;4921353;28;118948;-57
2021/10/20 05:31:58;;;;;;;;;;;;;;;13.14;67.10;100342.50;4922465;28;98258;-57
2021/10/20 05:34:24;;;;;;;;;;;;;;;13.14;67.20;100339.78;4921034;28;125037;-58
2021/10/20 05:36:50;;;;;;;;;;;;;;;13.13;67.08;100340.91;4919856;28;126349;-58
2021/10/20 05:39:16;;;;;;;;;;;;;;;13.12;67.10;100333.84;4935063;28;117981;-58
2021/10/20 05:41:42;;;;;;;;;;;;;;;13.12;67.04;100333.84;4935465;28;127651;-58
2021/10/20 05:44:08;;;;;;;;;;;;;;;13.11;67.25;100342.25;4886868;28;128285;-57
2021/10/20 05:46:34;;;;;;;;;;;;;;;13.12;67.29;100333.03;4921763;28;97965;-57
2021/10/20 05:49:00;;;;;;;;;;;;;;;13.11;66.91;100331.44;4920973;28;115418;-57
2021/10/20 05:51:26;;;;;;;;;;;;;;;13.12;67.25;100333.84;4921115;28;125999;-58
2021/10/20 05:53:52;;;;;;;;;;;;;;;13.12;67.15;100339.25;4920192;28;128998;-58
2021/10/20 05:56:17;;;;;;;;;;;;;;;13.13;66.98;100335.47;4921290;28;128432;-57
2021/10/20 05:58:43;;;;;;;;;;;;;;;13.15;67.25;100332.47;4902935;28;114937;-58
2021/10/20 06:01:11;;;;;;;;;;;;;;;13.15;67.12;100327.06;4920928;28;126137;-57
2021/10/20 06:03:36;;;;;;;;;;;;;;;13.17;66.94;100325.69;4921292;28;98424;-58
2021/10/20 06:06:02;;;;;;;;;;;;;;;13.19;66.95;100325.41;4920870;28;127204;-57
2021/10/20 06:08:28;;;;;;;;;;;;;;;13.21;67.10;100317.81;4919559;28;107687;-58
2021/10/20 06:10:54;;;;;;;;;;;;;;;13.24;66.99;100314.53;4920502;28;128018;-58
2021/10/20 06:13:20;;;;;;;;;;;;;;;13.28;66.79;100307.44;4921350;28;116474;-57
2021/10/20 06:15:46;;;;;;;;;;;;;;;13.32;67.14;100307.69;4921139;28;126401;-58
2021/10/20 06:18:12;;;;;;;;;;;;;;;13.37;66.84;100302.22;4920393;28;117406;-58
2021/10/20 06:20:38;;;;;;;;;;;;;;;13.42;66.67;100302.94;4921773;28;98016;-57
2021/10/20 06:23:04;;;;;;;;;;;;;;;13.47;66.94;100311.00;4922623;28;119547;-58
2021/10/20 06:25:30;;;;;;;;;;;;;;;13.51;66.76;100298.50;4924943;28;105528;-58
2021/10/20 06:27:56;;;;;;;;;;;;;;;13.57;66.60;100293.84;4906814;28;98110;-57
2021/10/20 06:30:22;;;;;;;;;;;;;;;13.62;66.42;100304.59;4924530;28;101611;-58
2021/10/20 06:32:48;;;;;;;;;;;;;;;13.68;66.26;100303.44;4923048;28;127331;-57
2021/10/20 06:35:14;;;;;;;;;;;;;;;13.74;66.28;100293.31;4923109;28;127671;-57
2021/10/20 06:37:45;;;;;;;;;;;;;;;13.81;66.39;100301.09;4924402;28;97743;-57
2021/10/20 06:40:11;;;;;;;;;;;;;;;13.87;66.31;100299.91;4923552;28;117247;-58
2021/10/20 06:42:37;;;;;;;;;;;;;;;13.93;66.33;100296.03;4924140;28;115094;-58
2021/10/20 06:45:03;;;;;;;;;;;;;;;14.02;66.00;100299.69;4923924;28;127459;-57
2021/10/20 06:47:29;;;;;;;;;;;;;;;14.10;66.08;100295.50;4924618;28;97984;-57
2021/10/20 06:49:55;;;;;;;;;;;;;;;14.19;66.20;100296.47;4923809;28;116431;-57
2021/10/20 06:52:21;;;;;;;;;;;;;;;14.28;65.96;100291.97;4923901;28;98900;-57
2021/10/20 06:54:47;;;;;;;;;;;;;;;14.37;65.71;100292.91;4923325;28;127375;-57
2021/10/20 06:57:13;;;;;;;;;;;;;;;14.44;65.88;100293.34;4923574;28;117760;-57
2021/10/20 06:59:39;;;;;;;;;;;;;;;14.51;65.96;100286.75;4923557;28;107343;-58
2021/10/20 07:02:05;;;;;;;;;;;;;;;14.56;65.66;100283.94;4923954;28;101141;-57
2021/10/20 07:04:30;;;;;;;;;;;;;;;14.60;65.93;100285.78;4923451;28;127818;-57
2021/10/20 07:06:57;;;;;;;;;;;;;;;14.63;65.87;100281.66;4924406;28;97808;-57
2021/10/20 07:09:23;;;;;;;;;;;;;;;14.66;65.80;100276.44;4924314;28;98537;-58
2021/10/20 07:11:49;;;;;;;;;;;;;;;14.71;65.76;100275.53;4923824;28;99038;-57
2021/10/20 07:14:15;;;;;;;;;;;;;;;14.78;65.42;100273.25;4924106;28;126438;-58
2021/10/20 07:16:41;;;;;;;;;;;;;;;14.84;65.62;100273.94;4923160;28;117524;-57
2021/10/20 07:19:07;;;;;;;;;;;;;;;14.91;65.33;100268.94;4924421;28;98206;-57
2021/10/20 07:21:34;;;;;;;;;;;;;;;14.99;65.43;100279.09;4923933;28;98679;-58
2021/10/20 07:24:01;;;;;;;;;;;;;;;15.07;65.06;100269.44;4923587;28;97800;-57
2021/10/20 07:26:26;;;;;;;;;;;;;;;15.17;64.92;100269.25;4924445;28;97859;-57
2021/10/20 07:28:52;;;;;;;;;;;;;;;15.32;65.04;100265.38;4922565;28;127324;-58
2021/10/20 07:31:18;;;;;;;;;;;;;;;15.41;64.62;100260.88;4923416;28;100603;-58
2021/10/20 07:33:44;;;;;;;;;;;;;;;15.56;64.58;100260.53;4921645;28;125566;-57
2021/10/20 07:36:10;;;;;;;;;;;;;;;15.75;64.37;100262.31;4923250;28;115992;-57
2021/10/20 07:38:36;;;;;;;;;;;;;;;16.03;64.07;100261.09;4922243;28;126305;-58
2021/10/20 07:41:02;;;;;;;;;;;;;;;16.32;63.42;100257.97;4922662;28;127834;-57
2021/10/20 07:43:29;;;;;;;;;;;;;;;16.76;62.71;100263.66;4922596;28;127903;-57
2021/10/20 07:45:56;;;;;;;;;;;;;;;17.38;61.53;100255.38;4923706;28;98098;-57
2021/10/20 07:48:21;;;;;;;;;;;;;;;17.93;60.77;100260.28;4923424;28;98321;-58
2021/10/20 07:50:47;;;;;;;;;;;;;;;18.22;60.46;100256.88;4923091;28;127559;-58
2021/10/20 07:53:13;;;;;;;;;;;;;;;18.57;59.93;100257.59;4936537;28;126802;-57
2021/10/20 07:55:39;;;;;;;;;;;;;;;19.15;59.11;100252.56;4923757;28;115960;-57
2021/10/20 07:58:05;;;;;;;;;;;;;;;19.93;57.73;100248.53;4922456;28;128228;-58
2021/10/20 08:00:31;;;;;;;;;;;;;;;20.42;57.24;100248.69;4922946;28;99194;-57
2021/10/20 08:02:57;;;;;;;;;;;;;;;20.87;56.86;100248.69;4923014;28;99306;-59
2021/10/20 08:05:23;;;;;;;;;;;;;;;20.80;57.55;100251.19;4922675;28;97990;-58
2021/10/20 08:07:51;;;;;;;;;;;;;;;20.79;57.99;100252.34;4922338;28;122562;-57
2021/10/20 08:10:19;;;;;;;;;;;;;;;22.05;55.54;100253.06;4924119;28;98747;-57
2021/10/20 08:12:45;;;;;;;;;;;;;;;23.50;53.06;100248.03;4917234;28;122400;-57
2021/10/20 08:15:14;;;;;;;;;;;;;;;24.42;52.52;100245.63;4924120;28;97931;-58
2021/10/20 08:17:41;;;;;;;;;;;;;;;23.89;54.59;100248.09;4922943;28;97798;-57
2021/10/20 08:20:09;;;;;;;;;;;;;;;23.40;55.51;100237.63;4923216;28;99161;-57
2021/10/20 08:22:38;;;;;;;;;;;;;;;23.88;54.81;100230.00;4923328;28;98118;-59
2021/10/20 08:25:05;;;;;;;;;;;;;;;25.79;51.31;100224.50;4923359;28;98032;-59
2021/10/20 08:27:31;;;;;;;;;;;;;;;25.21;53.30;100215.44;4921959;28;120290;-58
2021/10/20 08:29:56;;;;;;;;;;;;;;;24.35;54.94;100221.47;4922013;28;128051;-58
2021/10/20 08:32:22;;;;;;;;;;;;;;;24.19;55.36;100207.81;4924935;28;128414;-57
2021/10/20 08:34:50;;;;;;;;;;;;;;;23.75;55.78;100212.84;4921856;28;119263;-58
2021/10/20 08:37:17;;;;;;;;;;;;;;;23.82;55.42;100213.00;4922416;28;98345;-58
2021/10/20 08:39:42;;;;;;;;;;;;;;;23.99;55.17;100195.25;4922293;28;99345;-58
2021/10/20 08:42:08;;;;;;;;;;;;;;;24.27;54.45;100196.94;4921823;28;127270;-58
2021/10/20 08:44:34;;;;;;;;;;;;;;;26.04;51.26;100199.94;4921781;28;118179;-59
2021/10/20 08:47:00;;;;;;;;;;;;;;;27.70;48.90;100193.28;4902115;28;114460;-59
2021/10/20 08:49:26;;;;;;;;;;;;;;;28.24;48.93;100188.69;4921689;28;120180;-58
2021/10/20 08:51:52;;;;;;;;;;;;;;;28.34;49.60;100189.91;4922853;28;98268;-59
2021/10/20 08:54:18;;;;;;;;;;;;;;;28.89;48.46;100189.53;4903472;28;117530;-58
2021/10/20 08:56:45;;;;;;;;;;;;;;;28.48;49.69;100186.38;4921316;28;125438;-58
2021/10/20 08:59:11;;;;;;;;;;;;;;;28.25;50.26;100170.88;4922356;28;98618;-58
2021/10/20 09:01:38;;;;;;;;;;;;;;;29.08;48.73;100174.44;4923161;28;98452;-58
2021/10/20 09:04:07;;;;;;;;;;;;;;;30.25;46.83;100180.69;4922566;28;98068;-58
2021/10/20 09:06:33;;;;;;;;;;;;;;;30.44;47.05;100166.25;4922937;28;98274;-58
2021/10/20 09:09:04;;;;;;;;;;;;;;;30.61;47.58;100167.28;4921170;28;128005;-58
2021/10/20 09:13:59;;;;;;;;;;;;;;;30.12;48.97;100169.25;4921964;28;98155;-59
2021/10/20 09:16:25;;;;;;;;;;;;;;;29.94;48.92;100149.09;4921909;28;98229;-59
2021/10/20 09:18:51;;;;;;;;;;;;;;;30.01;48.72;100149.84;4920499;28;126366;-59
2021/10/20 09:21:17;;;;;;;;;;;;;;;29.47;49.55;100143.00;4922131;28;98290;-58
2021/10/20 09:23:43;;;;;;;;;;;;;;;28.71;51.06;100134.09;4921423;28;118216;-59
2021/10/20 09:26:09;;;;;;;;;;;;;;;28.32;51.05;100131.31;4921257;28;127222;-58
2021/10/20 09:28:37;;;;;;;;;;;;;;;28.02;51.58;100118.63;4921926;28;127526;-59
2021/10/20 09:31:05;;;;;;;;;;;;;;;27.64;51.88;100120.13;4904491;28;97985;-59
2021/10/20 09:33:38;;;;;;;;;;;;;;;27.44;51.87;100119.66;4904645;28;98048;-58
2021/10/20 09:36:06;;;;;;;;;;;;;;;27.29;52.06;100115.25;4921485;28;109048;-59
2021/10/20 09:38:37;;;;;;;;;;;;;;;26.96;52.44;100119.00;4922354;28;98592;-58
2021/10/20 09:41:04;;;;;;;;;;;;;;;26.64;52.70;100128.66;4921877;28;98390;-57
2021/10/20 09:43:30;;;;;;;;;;;;;;;26.33;53.03;100116.19;4921117;28;97941;-59
2021/10/20 09:45:56;;;;;;;;;;;;;;;26.24;52.99;100123.19;4922139;28;98500;-58
2021/10/20 09:48:23;;;;;;;;;;;;;;;25.93;53.15;100117.78;4921626;28;111517;-59
2021/10/20 09:51:06;;;;;;;;;;;;;;;25.71;53.29;100108.47;4921553;28;98727;-58
2021/10/20 09:53:35;;;;;;;;;;;;;;;25.75;53.22;100107.72;4922466;28;97968;-59
2021/10/20 09:56:21;;;;;;;;;;;;;;;26.19;52.14;100102.25;4921956;28;98421;-59
2021/10/20 09:58:49;;;;;;;;;;;;;;;26.68;50.81;100109.34;4920498;28;98109;-59
2021/10/20 10:01:16;;;;;;;;;;;;;;;26.38;51.72;100098.47;4921643;28;98544;-57
2021/10/20 10:03:42;;;;;;;;;;;;;;;26.09;52.34;100091.91;4904544;28;98567;-59
2021/10/20 10:06:08;;;;;;;;;;;;;;;26.06;52.42;100092.69;4921192;28;127183;-59
2021/10/20 10:08:34;;;;;;;;;;;;;;;25.90;52.52;100098.44;4920104;28;126440;-59
2021/10/20 10:11:00;;;;;;;;;;;;;;;25.91;52.43;100087.03;4920239;28;127835;-58
2021/10/20 10:13:27;;;;;;;;;;;;;;;26.06;52.02;100084.41;4936179;28;97902;-57
2021/10/20 10:15:53;;;;;;;;;;;;;;;26.13;51.91;100084.44;4902392;28;118807;-59
2021/10/20 10:18:19;;;;;;;;;;;;;;;25.70;52.91;100089.53;4919588;28;126898;-58
2021/10/20 10:20:45;;;;;;;;;;;;;;;25.46;53.38;100085.31;4936157;28;98136;-59
2021/10/20 10:23:24;;;;;;;;;;;;;;;25.34;53.16;100074.56;4921224;28;97842;-59
2021/10/20 10:25:58;;;;;;;;;;;;;;;25.40;52.96;100059.28;4922225;28;98883;-59
2021/10/20 10:28:26;;;;;;;;;;;;;;;25.26;53.11;100050.81;4920855;28;98777;-58
2021/10/20 10:31:05;;;;;;;;;;;;;;;26.96;49.90;100061.75;4902916;28;98026;-58
2021/10/20 10:33:33;;;;;;;;;;;;;;;27.15;49.71;100069.72;4921138;28;97963;-58
2021/10/20 10:36:25;;;;;;;;;;;;;;;26.72;50.83;100065.16;4903650;28;99010;-59
2021/10/20 10:38:59;;;;;;;;;;;;;;;27.81;48.90;100060.44;4916310;28;98969;-58
2021/10/20 10:41:29;;;;;;;;;;;;;;;28.61;47.88;100062.81;4922200;28;97697;-59
2021/10/20 10:44:02;;;;;;;;;;;;;;;27.79;49.63;100054.53;4921585;28;98132;-58
2021/10/20 10:46:31;;;;;;;;;;;;;;;27.78;50.02;100050.16;4920901;28;99079;-58
2021/10/20 10:48:57;;;;;;;;;;;;;;;28.05;49.50;100036.72;4903075;28;98290;-58
2021/10/20 10:51:24;;;;;;;;;;;;;;;28.53;48.84;100033.53;4919972;28;125893;-58
2021/10/20 10:53:59;;;;;;;;;;;;;;;28.20;49.68;100029.22;4921758;28;100697;-58
2021/10/20 10:56:25;;;;;;;;;;;;;;;27.66;50.81;100020.84;4920832;28;98003;-61
2021/10/20 10:58:59;;;;;;;;;;;;;;;27.45;51.16;100027.16;4920492;28;98381;-58
2021/10/20 11:01:44;;;;;;;;;;;;;;;27.41;51.03;100013.31;4921629;28;98509;-58
2021/10/20 11:04:26;;;;;;;;;;;;;;;27.29;51.35;99996.28;4920872;28;108574;-59
2021/10/20 11:06:53;;;;;;;;;;;;;;;27.14;51.63;99992.69;4919988;28;97883;-59
2021/10/20 11:09:22;;;;;;;;;;;;;;;27.04;51.68;99985.13;4921454;28;115715;-59
2021/10/20 11:11:53;;;;;;;;;;;;;;;26.91;52.17;99984.69;4924117;28;97721;-59
2021/10/20 11:14:26;;;;;;;;;;;;;;;27.08;51.79;99972.13;4924873;28;97961;-59
2021/10/20 11:16:57;;;;;;;;;;;;;;;27.32;51.32;99951.25;4924176;28;98498;-58
2021/10/20 11:19:23;;;;;;;;;;;;;;;27.55;50.91;99953.63;4924064;28;98734;-58
2021/10/20 11:21:49;;;;;;;;;;;;;;;28.09;50.24;99943.34;4923971;28;98772;-59
2021/10/20 11:24:15;;;;;;;;;;;;;;;28.32;50.20;99942.91;4924361;28;97823;-59
2021/10/20 11:26:44;;;;;;;;;;;;;;;28.30;50.25;99940.53;4923241;28;128090;-58
2021/10/20 11:29:10;;;;;;;;;;;;;;;28.10;51.08;99951.28;4937076;28;125644;-58
2021/10/20 11:31:39;;;;;;;;;;;;;;;27.82;51.66;99945.75;4924255;28;98498;-58
2021/10/20 11:34:38;;;;;;;;;;;;;;;27.58;52.01;99939.78;4905643;28;98822;-59
2021/10/20 11:37:05;;;;;;;;;;;;;;;27.35;52.49;99936.63;4929369;28;98035;-60
2021/10/20 11:39:31;;;;;;;;;;;;;;;27.30;52.25;99923.19;4923488;28;98242;-59
2021/10/20 11:42:00;;;;;;;;;;;;;;;27.11;52.73;99914.06;4923539;28;98125;-59
2021/10/20 11:44:27;;;;;;;;;;;;;;;26.87;53.07;99901.75;4924014;28;97866;-58
2021/10/20 11:46:57;;;;;;;;;;;;;;;26.63;53.32;99892.19;4923006;28;98277;-60
2021/10/20 11:49:23;;;;;;;;;;;;;;;26.46;53.41;99897.66;4922935;28;123137;-59
2021/10/20 11:51:49;;;;;;;;;;;;;;;26.29;53.64;99893.59;4923309;28;98309;-58
2021/10/20 11:54:15;;;;;;;;;;;;;;;26.16;53.70;99884.84;4905865;28;97892;-57
2021/10/20 11:56:41;;;;;;;;;;;;;;;25.94;53.81;99901.31;4923615;28;99074;-59
2021/10/20 11:59:18;;;;;;;;;;;;;;;25.84;53.83;99881.91;4923225;28;98223;-59
2021/10/20 12:01:45;;;;;;;;;;;;;;;25.69;54.22;99864.44;4922602;28;125759;-59
2021/10/20 12:04:11;;;;;;;;;;;;;;;25.58;53.96;99849.78;4923352;28;98274;-58
2021/10/20 12:06:37;;;;;;;;;;;;;;;25.58;53.85;99842.28;4922436;28;119431;-59
2021/10/20 12:09:05;;;;;;;;;;;;;;;25.48;53.76;99836.72;4903995;28;109155;-58
2021/10/20 12:11:31;;;;;;;;;;;;;;;25.35;54.09;99831.50;4923392;28;98471;-59
2021/10/20 12:14:05;;;;;;;;;;;;;;;25.22;54.19;99833.72;4888479;28;117503;-57
2021/10/20 12:16:31;;;;;;;;;;;;;;;25.15;54.19;99819.91;4922787;28;99572;-58
2021/10/20 12:18:58;;;;;;;;;;;;;;;25.00;54.61;99811.88;4923041;28;98911;-59
2021/10/20 12:21:27;;;;;;;;;;;;;;;24.84;54.83;99809.38;4904267;28;99229;-58
2021/10/20 12:23:59;;;;;;;;;;;;;;;24.70;55.03;99808.03;4922806;28;97986;-59
2021/10/20 12:26:28;;;;;;;;;;;;;;;24.58;54.88;99813.03;4923443;28;115314;-58
2021/10/20 12:28:55;;;;;;;;;;;;;;;24.41;54.95;99804.19;4922156;28;108087;-59
2021/10/20 12:31:22;;;;;;;;;;;;;;;24.29;55.32;99798.09;4938027;28;98451;-59
2021/10/20 12:33:50;;;;;;;;;;;;;;;24.17;55.32;99790.88;4922157;28;98002;-57